الصفحة الرئيسية
METAR-TAF:

METAR-TAF

مطار :

Mahikeng, جنوب أفريقيا

دائرة عرض: 25-47S, خط طول: 025-32E, ارتفاع: 1281 متر

مراقبة الطقس الحالي

تاريخ ووقت الإصدار 41 دقيقة قبل الساعة 09:00UTC
ريح 15 عقدة من الشمال
درجة الحرارة 26°درجة مئوية
الرطوبة 42%
ضغط 1026 hPa
الرؤية 10 كم أو أكثر
الغيوم لا تقل 1500 م ولا وجود لمزنة ركامية السحاب الأسود

METAR: FAMM 190900Z 01015KT CAVOK 26/12 Q1026 NOSIG

زمن: 11:41 (09:41 UTC)

توقعات

تاريخ ووقت الإصدار 3ساعات و 41 دقيقة قبل الساعة 06:00UTC
التوقعات صالحة من19 الساعة 07 UTC إلى 19 الساعة 18 UTC
ريح 12 عقدة من الشمال/الشمال الشرقي
الرؤية 10 كم أو أكثر
الغيوم لا تقل 1500 م ولا وجود لمزنة ركامية السحاب الأسود
أصبح
من 19 الساعة 10 UTC إلى 19 الساعة 12 UTC
غيوم متفرقة على ارتفاع 4500 قدم

TAF: FAMM 190600Z 1907/1918 02012KT CAVOK TX28/1913Z TN16/1918Z BECMG 1910/1912 SCT045

أرصاد الطقس والتوقعات من أكثر من 4000 مطار (تقارير الطقس للمطار METAR والتنبؤ بالطقس بالمطارTAF).

المحطات المتاحة هي النقط الصفراء والحمراء على الخريطة.

حرك المؤشر فوق النقطة لمعرفة اسم المحطة.

ثم انقر لمعرفة أرصاد وتوقعات الطقس.

لتغيير الخارطة: اضغط على الأزرار الخضراء مع رمز الصليب الأسود للتكبير. على الزر الأخضر مع شرطة للتصغير، أو على الأسهم الخضراء للخرائط المجاورة.


METAR-TAF: